Time;durP1;ratioP1;P1;durP2;ratioP2;P2;SDS_P1;SDS_P2;PMS_P1;PMS_P2;Temp;Humidity;BMP_temperature;BMP_pressure;BME280_temperature;BME280_humidity;BME280_pressure;Samples;Min_cycle;Max_cycle;Signal;HPM_P1;HPM_P2
2021/01/20 00:02:09;;;;;;;42.30;33.83;;;6.20;96.70;;;;;;4835126;29;20046;-70
2021/01/20 00:04:36;;;;;;;46.58;34.00;;;6.10;96.70;;;;;;4829588;29;20065;-70
2021/01/20 00:07:04;;;;;;;43.65;35.50;;;6.10;96.70;;;;;;4832033;29;20146;-70
2021/01/20 00:09:33;;;;;;;40.03;34.17;;;6.10;96.70;;;;;;4828779;29;20125;-71
2021/01/20 00:12:00;;;;;;;43.10;32.90;;;6.10;96.70;;;;;;4844056;29;20049;-70
2021/01/20 00:14:28;;;;;;;40.17;32.67;;;6.10;96.70;;;;;;4830121;29;20054;-70
2021/01/20 00:16:56;;;;;;;44.55;33.97;;;6.10;96.70;;;;;;4829342;29;20420;-71
2021/01/20 00:19:24;;;;;;;42.33;33.95;;;6.10;96.70;;;;;;4827128;29;20099;-70
2021/01/20 00:21:51;;;;;;;37.97;31.17;;;6.10;96.70;;;;;;4830994;29;20049;-71
2021/01/20 00:24:19;;;;;;;39.45;31.27;;;6.00;96.70;;;;;;4829030;29;20120;-70
2021/01/20 00:26:47;;;;;;;39.88;30.60;;;6.00;96.70;;;;;;4830616;29;20485;-70
2021/01/20 00:29:14;;;;;;;40.90;30.95;;;6.00;96.70;;;;;;4828722;29;20149;-70
2021/01/20 00:31:41;;;;;;;38.47;30.80;;;6.00;96.70;;;;;;4813733;29;20046;-71
2021/01/20 00:34:09;;;;;;;36.00;29.27;;;6.00;96.70;;;;;;4843181;29;20045;-70
2021/01/20 00:36:37;;;;;;;38.17;29.80;;;6.00;96.70;;;;;;4831971;29;20073;-70
2021/01/20 00:39:04;;;;;;;36.42;29.10;;;6.00;96.70;;;;;;4812818;29;20636;-70
2021/01/20 00:41:32;;;;;;;36.83;29.60;;;6.00;96.70;;;;;;4845168;29;20108;-70
2021/01/20 00:44:00;;;;;;;39.70;28.25;;;6.00;96.70;;;;;;4828117;29;20069;-70
2021/01/20 00:46:30;;;;;;;32.40;25.58;;;6.00;96.70;;;;;;4830033;29;20069;-70
2021/01/20 00:48:58;;;;;;;37.58;27.33;;;6.00;96.70;;;;;;4827544;29;20506;-70
2021/01/20 00:51:25;;;;;;;35.15;27.50;;;6.00;96.70;;;;;;4832645;29;20046;-70
2021/01/20 00:53:53;;;;;;;36.45;27.55;;;6.10;96.70;;;;;;4830663;29;20094;-70
2021/01/20 00:56:20;;;;;;;32.13;25.80;;;6.10;96.70;;;;;;4826169;29;20070;-71
2021/01/20 00:58:48;;;;;;;32.45;25.75;;;6.10;96.70;;;;;;4826682;29;20433;-70
2021/01/20 01:01:16;;;;;;;31.88;25.88;;;6.10;96.70;;;;;;4833861;29;20046;-71
2021/01/20 01:03:44;;;;;;;31.48;26.05;;;6.10;96.70;;;;;;4833547;29;20175;-70
2021/01/20 01:06:11;;;;;;;36.67;26.23;;;6.00;96.70;;;;;;4834048;29;20132;-70
2021/01/20 01:08:38;;;;;;;34.42;28.10;;;6.10;96.70;;;;;;4832439;29;20062;-71
2021/01/20 01:11:06;;;;;;;31.50;25.73;;;6.10;96.70;;;;;;4845360;29;20073;-70
2021/01/20 01:13:39;;;;;;;36.65;27.25;;;6.10;96.70;;;;;;4852185;29;20544;-70
2021/01/20 01:16:27;;;;;;;33.30;26.00;;;6.10;96.70;;;;;;4830018;29;20046;-70
2021/01/20 01:18:55;;;;;;;33.08;25.95;;;6.10;96.70;;;;;;4847069;29;20578;-70
2021/01/20 01:21:23;;;;;;;36.65;26.60;;;6.10;96.70;;;;;;4832313;29;20198;-70
2021/01/20 01:23:50;;;;;;;33.45;25.50;;;6.10;96.70;;;;;;4816667;29;20045;-70
2021/01/20 01:26:18;;;;;;;33.58;24.85;;;6.10;96.70;;;;;;4833049;29;20046;-70
2021/01/20 01:28:45;;;;;;;33.55;25.95;;;6.10;96.70;;;;;;4830776;29;20050;-71
2021/01/20 01:31:24;;;;;;;34.53;26.75;;;6.00;96.70;;;;;;4833552;29;20072;-70
2021/01/20 01:33:52;;;;;;;32.67;26.30;;;6.00;96.70;;;;;;4834340;29;20500;-70
2021/01/20 01:36:22;;;;;;;33.75;25.52;;;6.00;96.70;;;;;;4832156;29;20054;-71
2021/01/20 01:38:51;;;;;;;31.65;24.85;;;6.00;96.70;;;;;;4835240;29;20413;-70
2021/01/20 01:41:26;;;;;;;34.28;24.95;;;6.10;96.70;;;;;;4832241;29;20050;-70
2021/01/20 01:44:02;;;;;;;33.90;24.63;;;6.10;96.70;;;;;;4829445;29;20353;-71
2021/01/20 01:46:33;;;;;;;30.63;24.40;;;6.10;96.70;;;;;;4845129;29;20497;-70
2021/01/20 01:49:14;;;;;;;31.77;24.48;;;6.00;96.70;;;;;;4834333;29;20408;-70
2021/01/20 01:51:42;;;;;;;32.63;23.90;;;6.10;96.70;;;;;;4832379;29;20166;-70
2021/01/20 01:54:19;;;;;;;;;;;6.10;96.70;;;;;;4833833;29;20046;-70
2021/01/20 01:56:47;;;;;;;27.15;20.85;;;6.10;96.70;;;;;;4846997;29;20064;-70
2021/01/20 01:59:18;;;;;;;29.95;22.58;;;6.20;96.70;;;;;;4834967;29;20500;-71
2021/01/20 02:01:47;;;;;;;32.45;22.92;;;6.20;96.70;;;;;;4829272;29;20042;-71
2021/01/20 02:04:20;;;;;;;29.30;22.17;;;6.10;96.70;;;;;;4828609;29;20538;-71
2021/01/20 02:06:57;;;;;;;27.20;21.40;;;6.20;96.70;;;;;;4832885;29;20466;-70
2021/01/20 02:09:32;;;;;;;30.45;21.80;;;6.20;96.70;;;;;;4830536;29;20094;-70
2021/01/20 02:12:18;;;;;;;27.10;21.05;;;6.20;96.70;;;;;;4830286;29;20114;-71
2021/01/20 02:14:54;;;;;;;28.02;20.75;;;6.20;96.70;;;;;;4817412;29;20506;-70
2021/01/20 02:17:33;;;;;;;29.55;21.55;;;6.20;96.70;;;;;;4831286;29;20056;-71
2021/01/20 02:20:18;;;;;;;28.15;21.48;;;6.20;96.70;;;;;;4831988;29;20041;-70
2021/01/20 02:22:51;;;;;;;24.77;19.60;;;6.20;96.70;;;;;;4833336;29;20454;-71
2021/01/20 02:25:56;;;;;;;31.42;22.08;;;6.10;96.70;;;;;;4830964;29;20054;-70
2021/01/20 02:28:41;;;;;;;26.85;22.40;;;6.20;96.70;;;;;;4834068;29;21197;-70
2021/01/20 02:31:21;;;;;;;29.40;22.00;;;6.20;96.70;;;;;;4828856;29;20041;-70
2021/01/20 02:33:52;;;;;;;26.90;21.67;;;6.20;96.70;;;;;;4829887;29;20976;-70
2021/01/20 02:36:25;;;;;;;28.70;22.88;;;6.20;96.70;;;;;;4823117;29;20086;-70
2021/01/20 02:39:13;;;;;;;27.15;20.90;;;6.20;96.70;;;;;;4829006;29;20083;-70
2021/01/20 02:41:42;;;;;;;31.13;22.42;;;6.20;96.70;;;;;;4828842;29;20462;-71
2021/01/20 02:44:18;;;;;;;;;;;6.20;96.70;;;;;;4831078;29;20140;-70
2021/01/20 02:46:56;;;;;;;28.88;23.20;;;6.20;96.70;;;;;;4832184;29;19933;-71
2021/01/20 02:49:37;;;;;;;32.78;23.30;;;6.20;96.70;;;;;;4833307;29;20044;-71
2021/01/20 02:52:15;;;;;;;28.55;22.98;;;6.20;96.70;;;;;;4828970;29;20133;-70
2021/01/20 02:54:54;;;;;;;30.05;24.05;;;6.20;96.70;;;;;;4833350;29;20046;-71
2021/01/20 02:57:43;;;;;;;29.85;23.33;;;6.20;96.70;;;;;;4829912;29;20050;-70
2021/01/20 03:00:19;;;;;;;28.25;22.80;;;6.20;96.70;;;;;;4829007;29;20060;-70
2021/01/20 03:03:09;;;;;;;30.40;23.45;;;6.20;96.70;;;;;;4830265;29;20426;-70
2021/01/20 03:05:40;;;;;;;30.63;23.63;;;6.20;96.70;;;;;;4830691;29;20153;-70
2021/01/20 03:08:08;;;;;;;25.48;21.65;;;6.20;96.70;;;;;;4830444;29;20451;-69
2021/01/20 03:10:36;;;;;;;29.27;23.27;;;6.20;96.70;;;;;;4835351;29;20192;-70
2021/01/20 03:13:03;;;;;;;32.10;25.25;;;6.20;96.70;;;;;;4811120;29;20054;-70
2021/01/20 03:15:35;;;;;;;30.13;23.98;;;6.20;96.70;;;;;;4833844;29;20073;-70
2021/01/20 03:18:04;;;;;;;28.83;23.77;;;6.20;96.70;;;;;;4818057;29;20053;-70
2021/01/20 03:20:33;;;;;;;30.80;24.23;;;6.30;96.70;;;;;;4832040;29;20057;-70
2021/01/20 03:23:00;;;;;;;31.45;23.73;;;6.30;96.70;;;;;;4829240;29;20050;-70
2021/01/20 03:25:28;;;;;;;29.50;23.60;;;6.30;96.70;;;;;;4832959;29;20033;-70
2021/01/20 03:27:55;;;;;;;31.17;23.35;;;6.30;96.70;;;;;;4843351;29;20081;-70
2021/01/20 03:30:23;;;;;;;28.52;23.42;;;6.30;96.70;;;;;;4832586;29;20073;-70
2021/01/20 03:32:50;;;;;;;31.33;24.08;;;6.30;96.70;;;;;;4815030;29;20046;-69
2021/01/20 03:35:17;;;;;;;29.65;24.10;;;6.30;96.70;;;;;;4829426;29;20050;-70
2021/01/20 03:37:46;;;;;;;26.55;21.88;;;6.30;96.70;;;;;;4828030;29;20060;-71
2021/01/20 03:40:13;;;;;;;29.02;24.20;;;6.30;96.70;;;;;;4810092;29;20046;-70
2021/01/20 03:42:40;;;;;;;30.95;24.48;;;6.30;96.70;;;;;;4832073;29;20479;-71
2021/01/20 03:45:09;;;;;;;30.95;24.13;;;6.20;96.70;;;;;;4828086;29;20537;-70
2021/01/20 03:47:36;;;;;;;31.35;24.05;;;6.20;96.70;;;;;;4813550;29;20225;-70
2021/01/20 03:50:04;;;;;;;27.80;23.85;;;6.20;96.70;;;;;;4828352;29;20121;-71
2021/01/20 03:52:31;;;;;;;32.33;24.63;;;6.20;96.70;;;;;;4819118;29;20065;-70
2021/01/20 03:55:00;;;;;;;31.85;24.27;;;6.20;96.70;;;;;;4830988;29;20415;-70
2021/01/20 03:57:27;;;;;;;27.85;22.33;;;6.20;96.70;;;;;;4845134;29;20048;-69
2021/01/20 03:59:54;;;;;;;28.48;23.05;;;6.20;96.70;;;;;;4833720;29;20058;-70
2021/01/20 04:02:22;;;;;;;26.92;22.42;;;6.30;96.70;;;;;;4831642;29;20086;-71
2021/01/20 04:05:01;;;;;;;28.15;22.73;;;6.20;96.70;;;;;;4827748;29;20565;-70
2021/01/20 04:07:28;;;;;;;27.92;22.77;;;6.20;96.70;;;;;;4829983;29;20050;-70
2021/01/20 04:09:55;;;;;;;30.48;23.98;;;6.20;96.70;;;;;;4828946;29;20073;-70
2021/01/20 04:12:24;;;;;;;28.00;22.75;;;6.30;96.70;;;;;;4832343;29;20600;-69
2021/01/20 04:14:51;;;;;;;29.40;23.02;;;6.20;96.70;;;;;;4815737;29;20066;-70
2021/01/20 04:17:18;;;;;;;27.40;22.88;;;6.30;96.70;;;;;;4829666;29;20050;-70
2021/01/20 04:19:46;;;;;;;31.08;24.58;;;6.30;96.70;;;;;;4830546;29;20125;-70
2021/01/20 04:22:13;;;;;;;29.75;23.70;;;6.30;96.70;;;;;;4833935;29;20146;-70
2021/01/20 04:24:41;;;;;;;29.35;23.05;;;6.30;96.70;;;;;;4826404;29;20146;-70
2021/01/20 04:27:09;;;;;;;27.35;23.38;;;6.30;96.70;;;;;;4829741;29;20088;-70
2021/01/20 04:29:37;;;;;;;28.23;22.98;;;6.30;96.70;;;;;;4813297;29;20437;-70
2021/01/20 04:32:05;;;;;;;27.40;22.63;;;6.30;96.70;;;;;;4831614;29;20061;-70
2021/01/20 04:34:32;;;;;;;30.00;24.98;;;6.30;96.70;;;;;;4816253;29;20406;-70
2021/01/20 04:36:59;;;;;;;28.13;22.02;;;6.30;96.70;;;;;;4834408;29;20418;-70
2021/01/20 04:39:27;;;;;;;28.38;23.20;;;6.30;96.70;;;;;;4834436;29;20098;-70
2021/01/20 04:41:54;;;;;;;30.10;24.77;;;6.20;96.70;;;;;;4831060;29;20058;-70
2021/01/20 04:44:22;;;;;;;29.23;23.95;;;6.20;96.70;;;;;;4831364;29;20448;-70
2021/01/20 04:46:52;;;;;;;30.38;22.58;;;6.20;96.70;;;;;;4837656;29;20077;-70
2021/01/20 04:49:20;;;;;;;27.90;22.27;;;6.20;96.70;;;;;;4831728;29;20053;-70
2021/01/20 04:51:50;;;;;;;30.67;24.13;;;6.20;96.70;;;;;;4837665;29;20124;-70
2021/01/20 04:54:19;;;;;;;27.08;22.52;;;6.10;96.70;;;;;;4815631;29;20060;-71
2021/01/20 04:56:47;;;;;;;28.63;22.88;;;6.10;96.70;;;;;;4830872;29;20049;-70
2021/01/20 04:59:15;;;;;;;26.70;22.90;;;6.00;96.70;;;;;;4835650;29;20140;-70
2021/01/20 05:01:43;;;;;;;27.80;22.33;;;6.00;96.70;;;;;;4834966;29;20045;-70
2021/01/20 05:04:14;;;;;;;26.80;22.80;;;5.90;96.70;;;;;;4832353;29;20106;-70
2021/01/20 05:06:45;;;;;;;27.75;23.25;;;5.90;96.70;;;;;;4832828;29;20041;-70
2021/01/20 05:09:12;;;;;;;28.38;22.95;;;6.00;96.70;;;;;;4834462;29;20064;-70
2021/01/20 05:11:41;;;;;;;29.73;22.42;;;6.00;96.70;;;;;;4818157;29;20577;-70
2021/01/20 05:14:09;;;;;;;27.58;23.13;;;5.90;96.70;;;;;;4832603;29;20110;-70
2021/01/20 05:16:37;;;;;;;28.80;22.92;;;5.80;96.70;;;;;;4834103;29;20053;-70
2021/01/20 05:19:04;;;;;;;26.70;22.73;;;5.80;96.70;;;;;;4833834;29;20074;-70
2021/01/20 05:21:33;;;;;;;30.52;23.27;;;5.80;96.70;;;;;;4838758;29;20044;-70
2021/01/20 05:24:19;;;;;;;25.45;22.30;;;5.80;96.70;;;;;;4822319;29;20050;-70
2021/01/20 05:26:48;;;;;;;27.27;22.50;;;5.90;96.70;;;;;;4842434;29;20050;-70
2021/01/20 05:29:16;;;;;;;27.63;22.95;;;5.80;96.70;;;;;;4814722;29;20129;-70
2021/01/20 05:31:44;;;;;;;26.90;21.60;;;5.80;96.70;;;;;;4826301;29;20208;-70
2021/01/20 05:34:27;;;;;;;27.73;22.65;;;5.80;96.70;;;;;;4830429;29;20096;-75
2021/01/20 05:37:06;;;;;;;25.50;21.17;;;5.80;96.70;;;;;;4830523;29;20046;-70
2021/01/20 05:39:35;;;;;;;30.10;22.27;;;5.80;96.70;;;;;;4835580;29;20046;-70
2021/01/20 05:42:04;;;;;;;25.75;20.67;;;5.70;96.70;;;;;;4833594;29;20560;-70
2021/01/20 05:44:32;;;;;;;20.42;17.92;;;5.70;96.70;;;;;;4830985;29;20056;-70
2021/01/20 05:47:07;;;;;;;23.73;19.60;;;5.70;96.70;;;;;;4831018;29;20042;-70
2021/01/20 05:49:35;;;;;;;22.10;18.60;;;5.70;96.70;;;;;;4815167;29;20042;-70
2021/01/20 05:52:12;;;;;;;26.38;21.25;;;5.60;96.70;;;;;;4832990;29;20050;-70
2021/01/20 05:54:40;;;;;;;25.10;20.27;;;5.60;96.70;;;;;;4836790;29;20041;-70
2021/01/20 05:57:11;;;;;;;23.55;20.02;;;5.60;96.70;;;;;;4832793;29;20120;-70
2021/01/20 05:59:39;;;;;;;24.05;20.00;;;5.60;96.70;;;;;;4832314;29;20520;-70
2021/01/20 06:02:08;;;;;;;23.80;20.17;;;5.70;96.70;;;;;;4831944;29;20458;-69
2021/01/20 06:04:37;;;;;;;22.90;20.25;;;5.80;96.70;;;;;;4833260;29;20049;-70
2021/01/20 06:07:08;;;;;;;25.05;20.17;;;5.80;96.70;;;;;;4835468;29;20367;-70
2021/01/20 06:09:37;;;;;;;23.38;20.58;;;5.80;96.70;;;;;;4831736;29;20134;-70
2021/01/20 06:12:05;;;;;;;24.50;20.45;;;5.80;96.70;;;;;;4830446;29;20103;-70
2021/01/20 06:14:33;;;;;;;29.63;23.25;;;5.80;96.70;;;;;;4837123;29;20081;-70
2021/01/20 06:17:06;;;;;;;25.05;21.63;;;5.80;96.70;;;;;;4820141;29;20065;-71
2021/01/20 06:19:37;;;;;;;27.70;21.90;;;5.80;96.70;;;;;;4831409;29;20480;-70
2021/01/20 06:22:07;;;;;;;25.35;21.45;;;5.80;96.70;;;;;;4834125;29;20454;-70
2021/01/20 06:24:41;;;;;;;26.02;20.02;;;5.80;96.70;;;;;;4835960;29;20061;-69
2021/01/20 06:27:15;;;;;;;26.15;20.80;;;5.80;96.70;;;;;;4813849;29;20049;-70
2021/01/20 06:29:46;;;;;;;30.08;21.67;;;5.80;96.70;;;;;;4832201;29;20390;-70
2021/01/20 06:32:19;;;;;;;27.42;20.98;;;5.80;96.70;;;;;;4836779;29;20399;-70
2021/01/20 06:34:50;;;;;;;26.98;21.33;;;5.80;96.70;;;;;;4828063;29;20061;-70
2021/01/20 06:37:37;;;;;;;25.58;21.40;;;5.80;96.70;;;;;;4832328;29;20480;-70
2021/01/20 06:40:37;;;;;;;23.05;19.60;;;5.80;96.70;;;;;;4830253;29;20038;-70
2021/01/20 06:43:34;;;;;;;25.33;19.27;;;5.80;96.70;;;;;;4839228;29;20145;-71
2021/01/20 06:46:20;;;;;;;25.48;19.92;;;5.80;96.70;;;;;;4831386;29;20137;-70
2021/01/20 06:49:09;;;;;;;25.40;21.30;;;5.80;96.70;;;;;;4828205;29;20102;-71
2021/01/20 06:51:37;;;;;;;23.27;19.13;;;5.80;96.70;;;;;;4835943;29;20056;-70
2021/01/20 06:54:10;;;;;;;25.50;20.85;;;5.80;96.70;;;;;;4829630;29;20054;-71
2021/01/20 06:56:41;;;;;;;26.73;20.02;;;5.80;96.70;;;;;;4832261;29;20211;-70
2021/01/20 06:59:25;;;;;;;26.70;21.55;;;5.80;96.70;;;;;;4829473;29;20539;-71
2021/01/20 07:02:09;;;;;;;27.52;21.08;;;5.90;96.70;;;;;;4832252;29;20051;-70
2021/01/20 07:04:53;;;;;;;26.75;20.08;;;5.90;96.70;;;;;;4841892;29;20118;-71
2021/01/20 07:07:50;;;;;;;25.40;19.10;;;5.80;96.70;;;;;;4833623;29;20056;-70
2021/01/20 07:10:19;;;;;;;23.20;18.97;;;5.80;96.70;;;;;;4846532;29;20113;-70
2021/01/20 07:13:17;;;;;;;23.25;18.88;;;5.80;96.70;;;;;;4830596;29;20129;-70
2021/01/20 07:15:47;;;;;;;22.30;17.98;;;5.80;96.70;;;;;;4785615;29;20093;-70
2021/01/20 07:18:16;;;;;;;26.20;18.80;;;5.80;96.70;;;;;;4794756;29;20051;-71
2021/01/20 07:20:46;;;;;;;20.17;16.08;;;5.90;96.70;;;;;;4799621;29;20548;-70
2021/01/20 07:23:13;;;;;;;30.58;18.52;;;5.90;96.70;;;;;;4792656;29;20047;-70
2021/01/20 07:25:45;;;;;;;25.02;18.17;;;5.90;96.70;;;;;;4796730;29;20835;-71
2021/01/20 07:28:14;;;;;;;24.17;18.15;;;6.00;96.70;;;;;;4797140;29;20073;-70
2021/01/20 07:30:41;;;;;;;25.48;18.98;;;6.00;96.70;;;;;;4790351;29;20534;-70
2021/01/20 07:33:24;;;;;;;24.33;19.00;;;6.00;96.70;;;;;;4792348;29;20512;-71
2021/01/20 07:35:51;;;;;;;23.73;18.00;;;6.00;96.70;;;;;;4796666;29;20562;-70
2021/01/20 07:38:19;;;;;;;24.70;18.77;;;6.00;96.70;;;;;;4795258;29;20042;-70
2021/01/20 07:40:47;;;;;;;27.08;18.55;;;6.00;96.70;;;;;;4791615;29;20050;-71
2021/01/20 07:43:21;;;;;;;27.92;18.98;;;6.00;96.70;;;;;;4790131;29;20121;-70
2021/01/20 07:45:49;;;;;;;24.40;18.50;;;6.00;96.70;;;;;;4791929;29;20146;-71
2021/01/20 07:48:27;;;;;;;25.50;19.15;;;6.10;96.70;;;;;;4796227;29;20077;-70
2021/01/20 07:50:54;;;;;;;24.92;17.75;;;6.10;96.70;;;;;;4792530;29;20077;-70
2021/01/20 07:53:22;;;;;;;25.30;18.45;;;6.10;96.70;;;;;;4794727;29;20062;-71
2021/01/20 07:55:55;;;;;;;24.50;17.88;;;6.10;96.70;;;;;;4793289;29;20415;-70
2021/01/20 07:58:26;;;;;;;25.60;18.40;;;6.10;96.70;;;;;;4802646;29;20051;-70
2021/01/20 08:00:54;;;;;;;29.38;19.77;;;6.20;96.70;;;;;;4795156;29;20608;-70
2021/01/20 08:03:37;;;;;;;24.08;19.00;;;6.20;96.70;;;;;;4795932;29;20422;-69
2021/01/20 08:06:10;;;;;;;25.95;18.30;;;6.30;96.70;;;;;;4790919;29;20106;-69
2021/01/20 08:08:49;;;;;;;26.65;18.95;;;6.30;96.70;;;;;;4793521;29;20055;-69
2021/01/20 08:11:19;;;;;;;25.17;19.52;;;6.40;96.70;;;;;;4772825;29;20809;-70
2021/01/20 08:13:48;;;;;;;30.90;19.80;;;6.40;96.70;;;;;;4808828;29;20125;-71
2021/01/20 08:16:16;;;;;;;26.20;19.40;;;6.40;96.70;;;;;;4812797;29;20050;-71
2021/01/20 08:18:45;;;;;;;25.98;18.65;;;6.50;96.70;;;;;;4821285;29;20487;-71
2021/01/20 08:21:13;;;;;;;24.88;18.23;;;6.50;96.70;;;;;;4828825;29;20040;-71
2021/01/20 08:23:51;;;;;;;24.95;19.15;;;6.60;96.70;;;;;;4830991;29;20136;-71
2021/01/20 08:26:25;;;;;;;25.10;20.10;;;6.70;96.70;;;;;;4843456;29;20500;-70
2021/01/20 08:29:08;;;;;;;26.88;20.05;;;6.70;96.70;;;;;;4845629;29;20140;-70
2021/01/20 08:31:38;;;;;;;32.72;22.25;;;6.80;96.70;;;;;;4830963;29;20495;-71
2021/01/20 08:34:14;;;;;;;45.80;29.10;;;6.80;96.70;;;;;;4830092;29;20056;-70
2021/01/20 08:36:51;;;;;;;59.58;34.83;;;6.80;96.70;;;;;;4844217;29;20061;-71
2021/01/20 08:39:19;;;;;;;60.53;35.67;;;6.90;96.70;;;;;;4830490;29;20076;-71
2021/01/20 08:42:16;;;;;;;45.00;30.30;;;7.00;96.70;;;;;;4830477;29;20042;-72
2021/01/20 08:45:08;;;;;;;40.05;28.48;;;7.10;96.70;;;;;;4828403;29;20052;-71
2021/01/20 08:47:42;;;;;;;42.83;27.83;;;7.10;96.70;;;;;;4828537;29;20054;-72
2021/01/20 08:50:11;;;;;;;41.92;27.35;;;7.20;96.70;;;;;;4828505;29;20046;-70
2021/01/20 08:52:44;;;;;;;47.60;30.38;;;7.20;96.70;;;;;;4827739;29;20052;-71
2021/01/20 08:55:21;;;;;;;38.38;27.88;;;7.20;96.70;;;;;;4832003;29;20085;-72
2021/01/20 08:58:03;;;;;;;37.58;26.90;;;7.20;96.70;;;;;;4826778;29;20068;-71
2021/01/20 09:00:40;;;;;;;38.85;26.15;;;7.30;96.70;;;;;;4830240;29;20041;-70
2021/01/20 09:03:12;;;;;;;36.22;25.58;;;7.30;96.70;;;;;;4827558;29;20048;-70
2021/01/20 09:05:40;;;;;;;35.60;25.63;;;7.40;96.70;;;;;;4810195;29;20089;-71
2021/01/20 09:08:07;;;;;;;34.15;23.50;;;7.40;96.70;;;;;;4829938;29;20074;-71
2021/01/20 09:10:35;;;;;;;34.53;23.25;;;7.40;96.70;;;;;;4831724;29;20085;-70
2021/01/20 09:13:03;;;;;;;33.83;23.25;;;7.40;96.70;;;;;;4829145;29;20089;-71
2021/01/20 09:15:31;;;;;;;27.40;21.70;;;7.50;96.70;;;;;;4829865;29;20270;-71
2021/01/20 09:18:00;;;;;;;28.05;21.42;;;7.60;96.70;;;;;;4831525;29;20049;-72
2021/01/20 09:20:28;;;;;;;27.13;20.55;;;7.70;96.70;;;;;;4831358;29;20056;-70
2021/01/20 09:22:55;;;;;;;24.40;19.58;;;7.70;96.70;;;;;;4835094;29;20042;-71
2021/01/20 09:25:23;;;;;;;24.98;18.73;;;7.70;96.70;;;;;;4835357;29;20053;-71
2021/01/20 09:27:51;;;;;;;25.52;18.95;;;7.80;96.70;;;;;;4829282;29;20125;-73
2021/01/20 09:30:19;;;;;;;26.48;19.13;;;7.80;96.70;;;;;;4831359;29;20188;-73
2021/01/20 09:32:47;;;;;;;26.35;19.10;;;7.90;96.70;;;;;;4835944;29;20057;-73
2021/01/20 09:35:17;;;;;;;25.95;19.98;;;8.00;96.70;;;;;;4832881;29;20501;-71
2021/01/20 09:37:45;;;;;;;24.38;18.48;;;8.10;96.70;;;;;;4845120;29;20145;-72
2021/01/20 09:40:15;;;;;;;24.70;18.30;;;8.10;96.70;;;;;;4830367;29;20049;-72
2021/01/20 09:42:47;;;;;;;19.85;16.88;;;8.40;96.70;;;;;;4831656;29;20576;-72
2021/01/20 09:45:17;;;;;;;19.83;15.77;;;8.50;96.70;;;;;;4839354;29;21103;-71
2021/01/20 09:47:46;;;;;;;21.23;16.40;;;8.60;96.70;;;;;;4818919;29;20046;-73
2021/01/20 09:50:16;;;;;;;17.77;15.40;;;8.60;96.70;;;;;;4831297;29;20057;-71
2021/01/20 09:52:46;;;;;;;19.92;15.52;;;8.60;96.70;;;;;;4833777;29;20038;-71
2021/01/20 09:55:15;;;;;;;19.70;15.93;;;8.60;96.70;;;;;;4831990;29;20130;-71
2021/01/20 09:57:43;;;;;;;20.30;15.98;;;8.60;96.70;;;;;;4831192;29;20383;-71
2021/01/20 10:00:12;;;;;;;18.23;14.38;;;8.60;96.70;;;;;;4834107;29;20054;-71
2021/01/20 10:02:41;;;;;;;21.98;14.43;;;8.60;96.70;;;;;;4836413;29;20041;-72
2021/01/20 10:05:11;;;;;;;19.13;14.00;;;8.70;96.70;;;;;;4810324;29;20050;-71
2021/01/20 10:07:40;;;;;;;20.98;14.45;;;8.70;96.70;;;;;;4832535;29;20048;-70
2021/01/20 10:10:10;;;;;;;19.05;14.02;;;8.70;96.70;;;;;;4844084;29;20145;-70
2021/01/20 10:12:37;;;;;;;18.27;13.80;;;8.70;96.70;;;;;;4828883;29;20039;-71
2021/01/20 10:15:07;;;;;;;18.63;13.10;;;8.80;96.70;;;;;;4830284;29;20053;-74
2021/01/20 10:17:35;;;;;;;15.90;13.02;;;8.80;96.70;;;;;;4830183;29;20496;-70
2021/01/20 10:20:04;;;;;;;15.95;12.25;;;8.80;96.70;;;;;;4833429;29;20050;-70
2021/01/20 10:22:32;;;;;;;16.52;12.75;;;8.80;96.70;;;;;;4833563;29;20284;-70
2021/01/20 10:25:01;;;;;;;14.70;11.93;;;8.80;96.70;;;;;;4829200;29;20058;-69
2021/01/20 10:27:28;;;;;;;12.68;10.32;;;8.90;96.70;;;;;;4833171;29;20046;-69
2021/01/20 10:29:56;;;;;;;12.15;9.70;;;9.00;96.70;;;;;;4830224;29;21253;-72
2021/01/20 10:32:23;;;;;;;19.25;11.00;;;9.00;96.70;;;;;;4830164;29;20041;-70
2021/01/20 10:34:51;;;;;;;13.13;8.88;;;9.10;96.70;;;;;;4831245;29;20510;-70
2021/01/20 10:37:18;;;;;;;11.73;9.15;;;9.20;96.70;;;;;;4837853;29;20420;-69
2021/01/20 10:39:46;;;;;;;13.45;9.50;;;9.20;96.70;;;;;;4847821;29;20574;-70
2021/01/20 10:42:14;;;;;;;15.90;13.00;;;9.10;96.70;;;;;;4830484;29;20057;-70
2021/01/20 10:44:42;;;;;;;19.38;14.48;;;9.10;96.70;;;;;;4830605;29;20666;-71
2021/01/20 10:47:09;;;;;;;18.90;15.10;;;9.20;96.70;;;;;;4836476;29;20118;-70
2021/01/20 10:49:38;;;;;;;17.30;14.20;;;9.10;96.70;;;;;;4816891;29;20051;-70
2021/01/20 10:52:05;;;;;;;14.75;12.57;;;9.10;96.70;;;;;;4835586;29;20160;-69
2021/01/20 10:54:33;;;;;;;14.38;12.48;;;9.20;96.70;;;;;;4829714;29;20052;-70
2021/01/20 10:57:03;;;;;;;15.77;13.07;;;9.20;96.70;;;;;;4834946;29;20509;-70
2021/01/20 10:59:40;;;;;;;12.88;10.35;;;9.20;96.70;;;;;;4827951;29;20102;-70
2021/01/20 11:02:09;;;;;;;14.95;11.00;;;9.30;96.70;;;;;;4834341;29;20041;-69
2021/01/20 11:04:38;;;;;;;15.35;10.27;;;9.40;96.70;;;;;;4829489;29;20056;-70
2021/01/20 11:07:06;;;;;;;17.17;10.05;;;9.50;96.70;;;;;;4832606;29;20046;-70
2021/01/20 11:09:34;;;;;;;14.88;10.23;;;9.70;96.70;;;;;;4830001;29;20073;-70
2021/01/20 11:12:04;;;;;;;12.43;9.43;;;9.80;96.70;;;;;;4829812;29;20058;-70
2021/01/20 11:14:32;;;;;;;24.65;13.15;;;9.90;96.70;;;;;;4834941;29;20046;-70
2021/01/20 11:17:00;;;;;;;16.77;10.80;;;9.90;96.70;;;;;;4834928;29;20045;-70
2021/01/20 11:19:27;;;;;;;15.88;9.55;;;10.00;96.70;;;;;;4828804;29;20045;-70
2021/01/20 11:21:55;;;;;;;13.57;8.88;;;10.10;96.70;;;;;;4829069;29;20057;-70
2021/01/20 11:24:23;;;;;;;12.13;8.10;;;10.20;96.70;;;;;;4834777;29;20070;-70
2021/01/20 11:26:50;;;;;;;12.85;9.05;;;10.20;96.70;;;;;;4844173;29;20053;-70
2021/01/20 11:29:18;;;;;;;12.98;8.10;;;10.20;96.70;;;;;;4828958;29;20069;-71
2021/01/20 11:31:47;;;;;;;14.13;8.52;;;10.30;96.70;;;;;;4830833;29;20065;-70
2021/01/20 11:34:14;;;;;;;12.82;9.00;;;10.40;96.70;;;;;;4827729;29;20046;-70
2021/01/20 11:36:42;;;;;;;11.05;8.30;;;10.50;96.70;;;;;;4832411;29;20046;-70
2021/01/20 11:39:09;;;;;;;12.75;8.73;;;10.40;96.70;;;;;;4836065;29;20068;-70
2021/01/20 11:41:37;;;;;;;10.90;8.73;;;10.40;96.70;;;;;;4830722;29;20057;-69
2021/01/20 11:44:05;;;;;;;11.43;9.00;;;10.40;96.70;;;;;;4831128;29;20046;-70
2021/01/20 11:46:33;;;;;;;12.02;9.60;;;10.40;96.70;;;;;;4830957;29;20192;-70
2021/01/20 11:49:07;;;;;;;14.30;9.90;;;10.50;96.70;;;;;;4830361;29;20056;-69
2021/01/20 11:51:35;;;;;;;14.30;9.82;;;10.60;96.70;;;;;;4829373;29;20046;-70
2021/01/20 11:54:03;;;;;;;13.20;9.20;;;10.70;96.70;;;;;;4829348;29;20687;-71
2021/01/20 11:56:31;;;;;;;12.48;9.35;;;10.80;96.70;;;;;;4830860;29;20046;-70
2021/01/20 11:58:58;;;;;;;12.90;9.27;;;10.80;96.70;;;;;;4830056;29;20046;-70
2021/01/20 12:01:31;;;;;;;13.68;8.45;;;10.90;96.70;;;;;;4830593;29;20421;-70
2021/01/20 12:03:59;;;;;;;8.93;7.90;;;10.80;96.70;;;;;;4829991;29;20069;-70
2021/01/20 12:06:28;;;;;;;12.07;8.98;;;10.90;96.70;;;;;;4832129;29;20044;-70
2021/01/20 12:08:55;;;;;;;13.43;9.00;;;10.90;96.70;;;;;;4812667;29;20062;-70
2021/01/20 12:11:22;;;;;;;15.13;8.63;;;10.90;96.70;;;;;;4828814;29;20053;-70
2021/01/20 12:13:50;;;;;;;13.73;8.98;;;10.80;96.70;;;;;;4829784;29;20069;-69
2021/01/20 12:16:17;;;;;;;11.70;7.68;;;10.90;96.70;;;;;;4828232;29;20587;-70
2021/01/20 12:18:45;;;;;;;11.13;7.53;;;10.80;96.70;;;;;;4830775;29;20812;-70
2021/01/20 12:21:13;;;;;;;9.57;6.78;;;10.80;96.70;;;;;;4815156;29;20160;-70
2021/01/20 12:23:41;;;;;;;10.25;6.97;;;10.90;96.70;;;;;;4825647;29;20585;-70
2021/01/20 12:26:09;;;;;;;13.55;6.97;;;10.90;96.70;;;;;;4847223;29;20128;-70
2021/01/20 12:28:36;;;;;;;9.10;6.65;;;10.90;96.70;;;;;;4832277;29;20046;-69
2021/01/20 12:31:04;;;;;;;10.02;6.57;;;11.20;96.70;;;;;;4827804;29;20048;-70
2021/01/20 12:33:31;;;;;;;12.50;6.65;;;11.20;96.70;;;;;;4832807;29;20042;-69
2021/01/20 12:35:58;;;;;;;10.73;8.07;;;11.30;96.70;;;;;;4833077;29;20053;-70
2021/01/20 12:38:26;;;;;;;13.02;8.18;;;11.20;96.70;;;;;;4830528;29;20146;-70
2021/01/20 12:40:54;;;;;;;11.05;6.25;;;11.20;96.70;;;;;;4832652;29;20509;-70
2021/01/20 12:43:21;;;;;;;10.10;6.43;;;11.10;96.70;;;;;;4842653;29;20168;-70
2021/01/20 12:45:49;;;;;;;10.93;6.65;;;11.10;96.70;;;;;;4830705;29;20122;-69
2021/01/20 12:48:17;;;;;;;10.27;6.20;;;11.00;96.70;;;;;;4828937;29;20046;-69
2021/01/20 12:50:44;;;;;;;8.80;6.47;;;11.00;96.70;;;;;;4831825;29;20061;-70
2021/01/20 12:53:11;;;;;;;11.85;8.57;;;10.90;96.70;;;;;;4834758;29;20045;-71
2021/01/20 12:55:39;;;;;;;11.95;7.53;;;10.90;96.70;;;;;;4829005;29;20074;-70
2021/01/20 12:58:07;;;;;;;16.08;10.25;;;10.90;96.70;;;;;;4832839;29;20133;-71